sensor_id;sensor_type;location;lat;lon;timestamp;temperature;humidity
25718;DHT22;13574;52.040;5.692;2023-02-05T00:00:17;12.60;99.90
25718;DHT22;13574;52.040;5.692;2023-02-05T00:02:43;12.60;99.90
25718;DHT22;13574;52.040;5.692;2023-02-05T00:05:09;12.60;99.90
25718;DHT22;13574;52.040;5.692;2023-02-05T00:07:35;12.60;99.90
25718;DHT22;13574;52.040;5.692;2023-02-05T00:10:01;12.60;99.90
25718;DHT22;13574;52.040;5.692;2023-02-05T00:12:26;12.60;99.90
25718;DHT22;13574;52.040;5.692;2023-02-05T00:14:52;12.50;99.90
25718;DHT22;13574;52.040;5.692;2023-02-05T00:17:17;12.50;99.90
25718;DHT22;13574;52.040;5.692;2023-02-05T00:19:43;12.60;99.90
25718;DHT22;13574;52.040;5.692;2023-02-05T00:22:09;12.60;99.90
25718;DHT22;13574;52.040;5.692;2023-02-05T00:24:35;12.60;99.90
25718;DHT22;13574;52.040;5.692;2023-02-05T00:27:00;12.70;99.90
25718;DHT22;13574;52.040;5.692;2023-02-05T00:29:26;12.70;99.90
25718;DHT22;13574;52.040;5.692;2023-02-05T00:31:52;12.70;99.90
25718;DHT22;13574;52.040;5.692;2023-02-05T00:34:17;12.70;99.90
25718;DHT22;13574;52.040;5.692;2023-02-05T00:36:43;12.70;99.90
25718;DHT22;13574;52.040;5.692;2023-02-05T00:39:09;12.70;99.90
25718;DHT22;13574;52.040;5.692;2023-02-05T00:41:36;12.70;99.90
25718;DHT22;13574;52.040;5.692;2023-02-05T00:44:03;12.70;99.90
25718;DHT22;13574;52.040;5.692;2023-02-05T00:46:28;12.70;99.90
25718;DHT22;13574;52.040;5.692;2023-02-05T00:48:54;12.70;99.90
25718;DHT22;13574;52.040;5.692;2023-02-05T00:51:20;12.70;99.90
25718;DHT22;13574;52.040;5.692;2023-02-05T00:53:45;12.70;99.90
25718;DHT22;13574;52.040;5.692;2023-02-05T00:56:11;12.70;99.90
25718;DHT22;13574;52.040;5.692;2023-02-05T00:58:37;12.70;99.90
25718;DHT22;13574;52.040;5.692;2023-02-05T01:01:03;12.80;99.90
25718;DHT22;13574;52.040;5.692;2023-02-05T01:03:29;12.70;99.90
25718;DHT22;13574;52.040;5.692;2023-02-05T01:05:54;12.80;99.90
25718;DHT22;13574;52.040;5.692;2023-02-05T01:08:21;12.70;99.90
25718;DHT22;13574;52.040;5.692;2023-02-05T01:10:49;12.60;99.90
25718;DHT22;13574;52.040;5.692;2023-02-05T01:13:16;12.60;99.90
25718;DHT22;13574;52.040;5.692;2023-02-05T01:15:42;12.60;99.90
25718;DHT22;13574;52.040;5.692;2023-02-05T01:18:08;12.50;99.90
25718;DHT22;13574;52.040;5.692;2023-02-05T01:20:37;12.50;99.90
25718;DHT22;13574;52.040;5.692;2023-02-05T01:23:02;12.50;99.90
25718;DHT22;13574;52.040;5.692;2023-02-05T01:25:28;12.20;99.90
25718;DHT22;13574;52.040;5.692;2023-02-05T01:27:54;12.30;99.90
25718;DHT22;13574;52.040;5.692;2023-02-05T01:30:19;12.40;99.90
25718;DHT22;13574;52.040;5.692;2023-02-05T01:32:45;12.50;99.90
25718;DHT22;13574;52.040;5.692;2023-02-05T01:35:11;12.50;99.90
25718;DHT22;13574;52.040;5.692;2023-02-05T01:37:36;12.30;99.90
25718;DHT22;13574;52.040;5.692;2023-02-05T01:40:02;12.40;99.90
25718;DHT22;13574;52.040;5.692;2023-02-05T01:42:29;12.50;99.90
25718;DHT22;13574;52.040;5.692;2023-02-05T01:50:20;12.50;99.90
25718;DHT22;13574;52.040;5.692;2023-02-05T01:52:47;12.50;99.90
25718;DHT22;13574;52.040;5.692;2023-02-05T01:55:13;12.50;99.90
25718;DHT22;13574;52.040;5.692;2023-02-05T01:57:39;12.50;99.90
25718;DHT22;13574;52.040;5.692;2023-02-05T02:00:06;12.50;99.90
25718;DHT22;13574;52.040;5.692;2023-02-05T02:02:36;12.50;99.90
25718;DHT22;13574;52.040;5.692;2023-02-05T02:05:09;12.50;99.90
25718;DHT22;13574;52.040;5.692;2023-02-05T02:07:36;12.50;99.90
25718;DHT22;13574;52.040;5.692;2023-02-05T02:10:02;12.60;99.90
25718;DHT22;13574;52.040;5.692;2023-02-05T02:12:33;12.50;99.90
25718;DHT22;13574;52.040;5.692;2023-02-05T02:15:00;12.50;99.90
25718;DHT22;13574;52.040;5.692;2023-02-05T02:17:29;12.40;99.90
25718;DHT22;13574;52.040;5.692;2023-02-05T02:22:38;12.40;99.90
25718;DHT22;13574;52.040;5.692;2023-02-05T02:28:58;12.40;99.90
25718;DHT22;13574;52.040;5.692;2023-02-05T02:31:14;12.40;99.90
25718;DHT22;13574;52.040;5.692;2023-02-05T02:33:47;12.30;99.90
25718;DHT22;13574;52.040;5.692;2023-02-05T02:36:28;12.30;99.90
25718;DHT22;13574;52.040;5.692;2023-02-05T02:39:25;12.30;99.90
25718;DHT22;13574;52.040;5.692;2023-02-05T02:42:13;12.30;99.90
25718;DHT22;13574;52.040;5.692;2023-02-05T02:47:11;12.40;99.90
25718;DHT22;13574;52.040;5.692;2023-02-05T02:49:43;12.40;99.90
25718;DHT22;13574;52.040;5.692;2023-02-05T02:52:11;12.40;99.90
25718;DHT22;13574;52.040;5.692;2023-02-05T02:54:40;12.40;99.90
25718;DHT22;13574;52.040;5.692;2023-02-05T02:57:09;12.40;99.90
25718;DHT22;13574;52.040;5.692;2023-02-05T02:59:37;12.30;99.90
25718;DHT22;13574;52.040;5.692;2023-02-05T03:02:05;12.20;99.90
25718;DHT22;13574;52.040;5.692;2023-02-05T03:04:37;12.20;99.90
25718;DHT22;13574;52.040;5.692;2023-02-05T03:07:15;12.30;99.90
25718;DHT22;13574;52.040;5.692;2023-02-05T03:09:49;12.30;99.90
25718;DHT22;13574;52.040;5.692;2023-02-05T03:12:18;12.40;99.90
25718;DHT22;13574;52.040;5.692;2023-02-05T03:14:44;12.30;99.90
25718;DHT22;13574;52.040;5.692;2023-02-05T03:17:10;12.30;99.90
25718;DHT22;13574;52.040;5.692;2023-02-05T03:19:46;12.30;99.90
25718;DHT22;13574;52.040;5.692;2023-02-05T03:22:12;12.40;99.90
25718;DHT22;13574;52.040;5.692;2023-02-05T03:24:38;12.40;99.90
25718;DHT22;13574;52.040;5.692;2023-02-05T03:27:04;12.40;99.90
25718;DHT22;13574;52.040;5.692;2023-02-05T03:29:35;12.40;99.90
25718;DHT22;13574;52.040;5.692;2023-02-05T03:32:15;12.30;99.90
25718;DHT22;13574;52.040;5.692;2023-02-05T03:40:38;12.00;99.90
25718;DHT22;13574;52.040;5.692;2023-02-05T03:54:17;11.90;99.90
25718;DHT22;13574;52.040;5.692;2023-02-05T03:57:03;11.90;99.90
25718;DHT22;13574;52.040;5.692;2023-02-05T03:59:31;11.90;99.90
25718;DHT22;13574;52.040;5.692;2023-02-05T04:01:58;11.90;99.90
25718;DHT22;13574;52.040;5.692;2023-02-05T04:04:24;11.90;99.90
25718;DHT22;13574;52.040;5.692;2023-02-05T04:06:51;11.90;99.90
25718;DHT22;13574;52.040;5.692;2023-02-05T04:09:18;11.90;99.90
25718;DHT22;13574;52.040;5.692;2023-02-05T04:11:43;11.90;99.90
25718;DHT22;13574;52.040;5.692;2023-02-05T04:14:09;11.90;99.90
25718;DHT22;13574;52.040;5.692;2023-02-05T04:16:35;12.00;99.90
25718;DHT22;13574;52.040;5.692;2023-02-05T04:19:01;12.10;99.90
25718;DHT22;13574;52.040;5.692;2023-02-05T04:21:27;11.90;99.90
25718;DHT22;13574;52.040;5.692;2023-02-05T04:23:52;11.90;99.90
25718;DHT22;13574;52.040;5.692;2023-02-05T04:26:18;12.00;99.90
25718;DHT22;13574;52.040;5.692;2023-02-05T04:28:43;12.00;99.90
25718;DHT22;13574;52.040;5.692;2023-02-05T04:31:10;12.10;99.90
25718;DHT22;13574;52.040;5.692;2023-02-05T04:33:40;12.20;99.90
25718;DHT22;13574;52.040;5.692;2023-02-05T04:36:06;12.10;99.90
25718;DHT22;13574;52.040;5.692;2023-02-05T04:38:32;11.80;99.90
25718;DHT22;13574;52.040;5.692;2023-02-05T04:40:58;11.60;99.90
25718;DHT22;13574;52.040;5.692;2023-02-05T04:43:24;11.60;99.90
25718;DHT22;13574;52.040;5.692;2023-02-05T04:45:49;11.60;99.90
25718;DHT22;13574;52.040;5.692;2023-02-05T04:48:15;11.60;99.90
25718;DHT22;13574;52.040;5.692;2023-02-05T04:50:41;11.70;99.90
25718;DHT22;13574;52.040;5.692;2023-02-05T04:53:07;11.80;99.90
25718;DHT22;13574;52.040;5.692;2023-02-05T04:55:33;11.90;99.90
25718;DHT22;13574;52.040;5.692;2023-02-05T04:57:58;11.80;99.90
25718;DHT22;13574;52.040;5.692;2023-02-05T05:00:25;11.90;99.90
25718;DHT22;13574;52.040;5.692;2023-02-05T05:02:51;11.70;99.90
25718;DHT22;13574;52.040;5.692;2023-02-05T05:05:17;11.80;99.90
25718;DHT22;13574;52.040;5.692;2023-02-05T05:07:43;11.60;99.90
25718;DHT22;13574;52.040;5.692;2023-02-05T05:10:10;11.70;99.90
25718;DHT22;13574;52.040;5.692;2023-02-05T05:12:36;11.70;99.90
25718;DHT22;13574;52.040;5.692;2023-02-05T05:15:04;11.70;99.90
25718;DHT22;13574;52.040;5.692;2023-02-05T05:17:30;11.70;99.90
25718;DHT22;13574;52.040;5.692;2023-02-05T05:19:55;11.50;99.90
25718;DHT22;13574;52.040;5.692;2023-02-05T05:22:22;11.50;99.90
25718;DHT22;13574;52.040;5.692;2023-02-05T05:24:47;11.70;99.90
25718;DHT22;13574;52.040;5.692;2023-02-05T05:27:13;11.50;99.90
25718;DHT22;13574;52.040;5.692;2023-02-05T05:29:39;11.50;99.90
25718;DHT22;13574;52.040;5.692;2023-02-05T05:32:04;11.50;99.90
25718;DHT22;13574;52.040;5.692;2023-02-05T05:34:30;11.60;99.90
25718;DHT22;13574;52.040;5.692;2023-02-05T05:36:56;11.60;99.90
25718;DHT22;13574;52.040;5.692;2023-02-05T05:39:21;11.60;99.90
25718;DHT22;13574;52.040;5.692;2023-02-05T05:42:06;11.30;99.90
25718;DHT22;13574;52.040;5.692;2023-02-05T05:44:50;11.30;99.90
25718;DHT22;13574;52.040;5.692;2023-02-05T05:47:20;10.80;99.90
25718;DHT22;13574;52.040;5.692;2023-02-05T05:49:46;10.70;99.90
25718;DHT22;13574;52.040;5.692;2023-02-05T05:52:12;10.70;99.90
25718;DHT22;13574;52.040;5.692;2023-02-05T05:54:38;10.90;99.90
25718;DHT22;13574;52.040;5.692;2023-02-05T05:57:06;10.80;99.90
25718;DHT22;13574;52.040;5.692;2023-02-05T05:59:31;10.80;99.90
25718;DHT22;13574;52.040;5.692;2023-02-05T06:01:59;10.60;99.90
25718;DHT22;13574;52.040;5.692;2023-02-05T06:04:24;10.20;99.90
25718;DHT22;13574;52.040;5.692;2023-02-05T06:06:50;10.20;99.90
25718;DHT22;13574;52.040;5.692;2023-02-05T06:09:16;10.20;99.90
25718;DHT22;13574;52.040;5.692;2023-02-05T06:11:41;10.00;99.90
25718;DHT22;13574;52.040;5.692;2023-02-05T06:14:07;9.80;99.90
25718;DHT22;13574;52.040;5.692;2023-02-05T06:16:33;8.90;99.90
25718;DHT22;13574;52.040;5.692;2023-02-05T06:18:58;8.70;99.90
25718;DHT22;13574;52.040;5.692;2023-02-05T06:21:24;8.70;99.90
25718;DHT22;13574;52.040;5.692;2023-02-05T06:23:50;8.40;99.90
25718;DHT22;13574;52.040;5.692;2023-02-05T06:26:15;8.20;99.90
25718;DHT22;13574;52.040;5.692;2023-02-05T06:28:41;8.10;99.90
25718;DHT22;13574;52.040;5.692;2023-02-05T06:31:10;8.40;99.90
25718;DHT22;13574;52.040;5.692;2023-02-05T06:33:35;8.20;99.90
25718;DHT22;13574;52.040;5.692;2023-02-05T06:36:01;7.90;99.90
25718;DHT22;13574;52.040;5.692;2023-02-05T06:38:26;8.10;99.90
25718;DHT22;13574;52.040;5.692;2023-02-05T06:40:52;8.60;99.90
25718;DHT22;13574;52.040;5.692;2023-02-05T06:43:18;8.60;99.90
25718;DHT22;13574;52.040;5.692;2023-02-05T06:45:43;8.50;99.90
25718;DHT22;13574;52.040;5.692;2023-02-05T06:48:09;8.50;99.90
25718;DHT22;13574;52.040;5.692;2023-02-05T06:50:34;8.10;99.90
25718;DHT22;13574;52.040;5.692;2023-02-05T06:53:00;8.40;99.90
25718;DHT22;13574;52.040;5.692;2023-02-05T06:55:26;8.30;99.90
25718;DHT22;13574;52.040;5.692;2023-02-05T06:57:51;8.40;99.90
25718;DHT22;13574;52.040;5.692;2023-02-05T07:00:17;8.30;99.90
25718;DHT22;13574;52.040;5.692;2023-02-05T07:02:43;8.40;99.90
25718;DHT22;13574;52.040;5.692;2023-02-05T07:05:10;8.70;99.90
25718;DHT22;13574;52.040;5.692;2023-02-05T07:07:35;8.50;99.90
25718;DHT22;13574;52.040;5.692;2023-02-05T07:10:02;8.10;99.90
25718;DHT22;13574;52.040;5.692;2023-02-05T07:12:27;8.20;99.90
25718;DHT22;13574;52.040;5.692;2023-02-05T07:14:53;8.30;99.90
25718;DHT22;13574;52.040;5.692;2023-02-05T07:17:21;8.40;99.90
25718;DHT22;13574;52.040;5.692;2023-02-05T07:19:47;8.40;99.90
25718;DHT22;13574;52.040;5.692;2023-02-05T07:22:13;8.30;99.90
25718;DHT22;13574;52.040;5.692;2023-02-05T07:24:39;8.10;99.90
25718;DHT22;13574;52.040;5.692;2023-02-05T07:27:05;7.90;99.90
25718;DHT22;13574;52.040;5.692;2023-02-05T07:29:30;7.70;99.90
25718;DHT22;13574;52.040;5.692;2023-02-05T07:31:56;7.90;99.90
25718;DHT22;13574;52.040;5.692;2023-02-05T07:34:22;8.40;99.90
25718;DHT22;13574;52.040;5.692;2023-02-05T07:36:51;8.60;99.90
25718;DHT22;13574;52.040;5.692;2023-02-05T07:39:17;8.60;99.90
25718;DHT22;13574;52.040;5.692;2023-02-05T07:41:43;8.50;99.90
25718;DHT22;13574;52.040;5.692;2023-02-05T07:44:09;8.50;99.90
25718;DHT22;13574;52.040;5.692;2023-02-05T07:46:34;8.60;99.90
25718;DHT22;13574;52.040;5.692;2023-02-05T07:49:00;8.70;99.90
25718;DHT22;13574;52.040;5.692;2023-02-05T07:51:26;8.60;99.90
25718;DHT22;13574;52.040;5.692;2023-02-05T07:53:51;8.70;99.90
25718;DHT22;13574;52.040;5.692;2023-02-05T07:56:18;8.80;99.90
25718;DHT22;13574;52.040;5.692;2023-02-05T07:58:46;8.80;99.90
25718;DHT22;13574;52.040;5.692;2023-02-05T08:01:12;8.90;99.90
25718;DHT22;13574;52.040;5.692;2023-02-05T08:03:38;8.90;99.90
25718;DHT22;13574;52.040;5.692;2023-02-05T08:06:05;8.90;99.90
25718;DHT22;13574;52.040;5.692;2023-02-05T08:08:31;9.00;99.90
25718;DHT22;13574;52.040;5.692;2023-02-05T08:11:02;8.90;99.90
25718;DHT22;13574;52.040;5.692;2023-02-05T08:13:29;8.50;99.90
25718;DHT22;13574;52.040;5.692;2023-02-05T08:15:54;8.20;99.90
25718;DHT22;13574;52.040;5.692;2023-02-05T08:18:20;8.10;99.90
25718;DHT22;13574;52.040;5.692;2023-02-05T08:20:46;8.00;99.90
25718;DHT22;13574;52.040;5.692;2023-02-05T08:23:12;7.80;99.90
25718;DHT22;13574;52.040;5.692;2023-02-05T08:25:38;8.00;99.90
25718;DHT22;13574;52.040;5.692;2023-02-05T08:28:04;8.30;99.90
25718;DHT22;13574;52.040;5.692;2023-02-05T08:30:30;8.70;99.90
25718;DHT22;13574;52.040;5.692;2023-02-05T08:32:58;8.70;99.90
25718;DHT22;13574;52.040;5.692;2023-02-05T08:35:24;8.70;99.90
25718;DHT22;13574;52.040;5.692;2023-02-05T08:37:49;8.50;99.90
25718;DHT22;13574;52.040;5.692;2023-02-05T08:40:15;8.30;99.90
25718;DHT22;13574;52.040;5.692;2023-02-05T08:42:41;8.10;99.90
25718;DHT22;13574;52.040;5.692;2023-02-05T08:45:07;8.10;99.90
25718;DHT22;13574;52.040;5.692;2023-02-05T08:47:36;8.40;99.90
25718;DHT22;13574;52.040;5.692;2023-02-05T08:50:03;8.30;99.90
25718;DHT22;13574;52.040;5.692;2023-02-05T08:52:30;8.50;99.90
25718;DHT22;13574;52.040;5.692;2023-02-05T08:54:56;8.60;99.90
25718;DHT22;13574;52.040;5.692;2023-02-05T08:57:26;8.70;99.90
25718;DHT22;13574;52.040;5.692;2023-02-05T08:59:51;9.00;99.90
25718;DHT22;13574;52.040;5.692;2023-02-05T09:02:18;8.80;99.90
25718;DHT22;13574;52.040;5.692;2023-02-05T09:04:43;9.00;99.90
25718;DHT22;13574;52.040;5.692;2023-02-05T09:07:09;9.10;99.90
25718;DHT22;13574;52.040;5.692;2023-02-05T09:09:35;9.20;99.90
25718;DHT22;13574;52.040;5.692;2023-02-05T09:12:01;8.70;99.90
25718;DHT22;13574;52.040;5.692;2023-02-05T09:14:27;8.60;99.90
25718;DHT22;13574;52.040;5.692;2023-02-05T09:17:01;8.50;99.90
25718;DHT22;13574;52.040;5.692;2023-02-05T09:19:26;8.70;99.90
25718;DHT22;13574;52.040;5.692;2023-02-05T09:21:52;8.50;99.90
25718;DHT22;13574;52.040;5.692;2023-02-05T09:24:18;8.90;99.90
25718;DHT22;13574;52.040;5.692;2023-02-05T09:26:43;9.10;99.90
25718;DHT22;13574;52.040;5.692;2023-02-05T09:29:09;9.30;99.90
25718;DHT22;13574;52.040;5.692;2023-02-05T09:31:34;8.90;99.90
25718;DHT22;13574;52.040;5.692;2023-02-05T09:34:01;8.90;99.90
25718;DHT22;13574;52.040;5.692;2023-02-05T09:36:27;9.10;99.90
25718;DHT22;13574;52.040;5.692;2023-02-05T09:38:53;9.40;99.90
25718;DHT22;13574;52.040;5.692;2023-02-05T09:41:28;9.10;99.90
25718;DHT22;13574;52.040;5.692;2023-02-05T09:44:00;9.00;99.90
25718;DHT22;13574;52.040;5.692;2023-02-05T09:51:57;9.20;99.90
25718;DHT22;13574;52.040;5.692;2023-02-05T09:54:30;8.90;99.90
25718;DHT22;13574;52.040;5.692;2023-02-05T09:57:10;8.50;99.90
25718;DHT22;13574;52.040;5.692;2023-02-05T09:59:40;8.70;99.90
25718;DHT22;13574;52.040;5.692;2023-02-05T10:05:13;9.20;99.90
25718;DHT22;13574;52.040;5.692;2023-02-05T10:08:27;9.20;99.90
25718;DHT22;13574;52.040;5.692;2023-02-05T10:10:46;9.00;99.90
25718;DHT22;13574;52.040;5.692;2023-02-05T10:13:33;9.20;99.90
25718;DHT22;13574;52.040;5.692;2023-02-05T10:22:26;9.30;99.90
25718;DHT22;13574;52.040;5.692;2023-02-05T10:33:23;9.70;99.90
25718;DHT22;13574;52.040;5.692;2023-02-05T10:36:00;9.60;99.90
25718;DHT22;13574;52.040;5.692;2023-02-05T10:38:32;9.70;99.90
25718;DHT22;13574;52.040;5.692;2023-02-05T10:44:26;9.60;99.90
25718;DHT22;13574;52.040;5.692;2023-02-05T10:46:52;9.90;99.90
25718;DHT22;13574;52.040;5.692;2023-02-05T10:49:37;10.10;99.90
25718;DHT22;13574;52.040;5.692;2023-02-05T10:52:07;10.00;99.90
25718;DHT22;13574;52.040;5.692;2023-02-05T10:54:34;10.30;99.90
25718;DHT22;13574;52.040;5.692;2023-02-05T10:57:00;10.30;99.90
25718;DHT22;13574;52.040;5.692;2023-02-05T10:59:31;10.50;99.90
25718;DHT22;13574;52.040;5.692;2023-02-05T11:02:05;10.60;99.90
25718;DHT22;13574;52.040;5.692;2023-02-05T11:04:40;10.90;99.90
25718;DHT22;13574;52.040;5.692;2023-02-05T11:07:15;10.10;99.90
25718;DHT22;13574;52.040;5.692;2023-02-05T11:09:44;9.90;99.90
25718;DHT22;13574;52.040;5.692;2023-02-05T11:12:25;10.10;99.90
25718;DHT22;13574;52.040;5.692;2023-02-05T11:14:58;10.20;99.90
25718;DHT22;13574;52.040;5.692;2023-02-05T11:17:32;10.10;99.90
25718;DHT22;13574;52.040;5.692;2023-02-05T11:20:03;9.90;99.90
25718;DHT22;13574;52.040;5.692;2023-02-05T11:22:35;10.10;99.90
25718;DHT22;13574;52.040;5.692;2023-02-05T11:25:15;9.90;99.90
25718;DHT22;13574;52.040;5.692;2023-02-05T11:27:50;10.20;99.90
25718;DHT22;13574;52.040;5.692;2023-02-05T11:32:50;10.30;99.90
25718;DHT22;13574;52.040;5.692;2023-02-05T11:35:25;10.20;99.90
25718;DHT22;13574;52.040;5.692;2023-02-05T11:40:29;9.90;99.90
25718;DHT22;13574;52.040;5.692;2023-02-05T11:43:07;10.10;99.90
25718;DHT22;13574;52.040;5.692;2023-02-05T11:45:40;10.10;99.90
25718;DHT22;13574;52.040;5.692;2023-02-05T11:51:03;10.40;99.90
25718;DHT22;13574;52.040;5.692;2023-02-05T11:53:30;10.60;99.90
25718;DHT22;13574;52.040;5.692;2023-02-05T11:56:00;10.30;99.90
25718;DHT22;13574;52.040;5.692;2023-02-05T11:58:31;10.50;99.90
25718;DHT22;13574;52.040;5.692;2023-02-05T12:00:59;10.20;99.90
25718;DHT22;13574;52.040;5.692;2023-02-05T12:03:30;10.00;99.90
25718;DHT22;13574;52.040;5.692;2023-02-05T12:06:06;10.20;99.90
25718;DHT22;13574;52.040;5.692;2023-02-05T12:09:00;10.20;99.90
25718;DHT22;13574;52.040;5.692;2023-02-05T12:11:57;10.20;99.90
25718;DHT22;13574;52.040;5.692;2023-02-05T12:14:39;10.20;99.90
25718;DHT22;13574;52.040;5.692;2023-02-05T12:17:18;10.30;99.90
25718;DHT22;13574;52.040;5.692;2023-02-05T12:25:22;10.60;99.90
25718;DHT22;13574;52.040;5.692;2023-02-05T12:39:42;10.50;99.90
25718;DHT22;13574;52.040;5.692;2023-02-05T12:42:29;10.30;99.90
25718;DHT22;13574;52.040;5.692;2023-02-05T12:48:07;10.50;99.90
25718;DHT22;13574;52.040;5.692;2023-02-05T12:51:08;10.80;99.90
25718;DHT22;13574;52.040;5.692;2023-02-05T12:56:35;10.80;99.90
25718;DHT22;13574;52.040;5.692;2023-02-05T12:59:14;10.70;99.90
25718;DHT22;13574;52.040;5.692;2023-02-05T13:01:58;10.90;99.90
25718;DHT22;13574;52.040;5.692;2023-02-05T13:05:07;10.80;99.90
25718;DHT22;13574;52.040;5.692;2023-02-05T13:07:34;10.60;99.90
25718;DHT22;13574;52.040;5.692;2023-02-05T13:10:04;10.90;99.90
25718;DHT22;13574;52.040;5.692;2023-02-05T13:12:39;10.90;99.90
25718;DHT22;13574;52.040;5.692;2023-02-05T13:17:39;10.90;99.90
25718;DHT22;13574;52.040;5.692;2023-02-05T13:20:18;11.00;99.90
25718;DHT22;13574;52.040;5.692;2023-02-05T13:23:08;11.30;99.90
25718;DHT22;13574;52.040;5.692;2023-02-05T13:25:54;11.20;99.90
25718;DHT22;13574;52.040;5.692;2023-02-05T13:28:49;10.90;99.90
25718;DHT22;13574;52.040;5.692;2023-02-05T13:34:23;10.60;99.90
25718;DHT22;13574;52.040;5.692;2023-02-05T13:57:20;12.00;99.90
25718;DHT22;13574;52.040;5.692;2023-02-05T13:59:52;11.80;99.90
25718;DHT22;13574;52.040;5.692;2023-02-05T14:02:40;11.20;99.90
25718;DHT22;13574;52.040;5.692;2023-02-05T14:05:06;11.30;99.90
25718;DHT22;13574;52.040;5.692;2023-02-05T14:07:47;10.80;99.90
25718;DHT22;13574;52.040;5.692;2023-02-05T14:10:41;10.50;99.90
25718;DHT22;13574;52.040;5.692;2023-02-05T14:13:29;10.80;99.90
25718;DHT22;13574;52.040;5.692;2023-02-05T14:16:30;10.50;99.90
25718;DHT22;13574;52.040;5.692;2023-02-05T14:19:17;10.60;99.90
25718;DHT22;13574;52.040;5.692;2023-02-05T14:24:37;10.90;99.90
25718;DHT22;13574;52.040;5.692;2023-02-05T14:29:51;11.10;99.90
25718;DHT22;13574;52.040;5.692;2023-02-05T14:35:03;11.30;99.90
25718;DHT22;13574;52.040;5.692;2023-02-05T14:37:52;11.10;99.90
25718;DHT22;13574;52.040;5.692;2023-02-05T14:40:32;11.10;99.90
25718;DHT22;13574;52.040;5.692;2023-02-05T14:43:14;11.00;99.90
25718;DHT22;13574;52.040;5.692;2023-02-05T14:45:44;11.40;99.90
25718;DHT22;13574;52.040;5.692;2023-02-05T14:48:24;11.20;99.90
25718;DHT22;13574;52.040;5.692;2023-02-05T14:51:16;11.10;99.90
25718;DHT22;13574;52.040;5.692;2023-02-05T14:53:56;11.10;99.90
25718;DHT22;13574;52.040;5.692;2023-02-05T14:56:45;11.20;99.90
25718;DHT22;13574;52.040;5.692;2023-02-05T14:59:34;11.10;99.90
25718;DHT22;13574;52.040;5.692;2023-02-05T15:02:02;11.30;99.90
25718;DHT22;13574;52.040;5.692;2023-02-05T15:06:55;11.30;99.90
25718;DHT22;13574;52.040;5.692;2023-02-05T15:09:52;11.20;99.90
25718;DHT22;13574;52.040;5.692;2023-02-05T15:15:27;11.50;99.90
25718;DHT22;13574;52.040;5.692;2023-02-05T15:20:45;11.00;99.90
25718;DHT22;13574;52.040;5.692;2023-02-05T15:26:03;11.00;99.90
25718;DHT22;13574;52.040;5.692;2023-02-05T15:28:37;10.90;99.90
25718;DHT22;13574;52.040;5.692;2023-02-05T15:31:38;11.10;99.90
25718;DHT22;13574;52.040;5.692;2023-02-05T15:37:14;10.60;99.90
25718;DHT22;13574;52.040;5.692;2023-02-05T15:42:28;10.80;99.90
25718;DHT22;13574;52.040;5.692;2023-02-05T15:44:55;10.40;99.90
25718;DHT22;13574;52.040;5.692;2023-02-05T15:47:22;10.40;99.90
25718;DHT22;13574;52.040;5.692;2023-02-05T15:49:52;10.00;99.90
25718;DHT22;13574;52.040;5.692;2023-02-05T15:52:27;9.80;99.90
25718;DHT22;13574;52.040;5.692;2023-02-05T15:54:56;9.50;99.90
25718;DHT22;13574;52.040;5.692;2023-02-05T15:57:28;9.50;99.90
25718;DHT22;13574;52.040;5.692;2023-02-05T15:59:57;9.80;99.90
25718;DHT22;13574;52.040;5.692;2023-02-05T16:02:26;9.90;99.90
25718;DHT22;13574;52.040;5.692;2023-02-05T16:04:54;10.00;99.90
25718;DHT22;13574;52.040;5.692;2023-02-05T16:07:27;9.90;99.90
25718;DHT22;13574;52.040;5.692;2023-02-05T16:09:58;10.20;99.90
25718;DHT22;13574;52.040;5.692;2023-02-05T16:12:24;10.20;99.90
25718;DHT22;13574;52.040;5.692;2023-02-05T16:14:58;10.50;99.90
25718;DHT22;13574;52.040;5.692;2023-02-05T16:17:31;10.30;99.90
25718;DHT22;13574;52.040;5.692;2023-02-05T16:22:52;10.20;99.90
25718;DHT22;13574;52.040;5.692;2023-02-05T16:28:20;10.30;99.90
25718;DHT22;13574;52.040;5.692;2023-02-05T16:30:48;10.20;99.90
25718;DHT22;13574;52.040;5.692;2023-02-05T16:33:40;9.70;99.90
25718;DHT22;13574;52.040;5.692;2023-02-05T16:40:03;9.90;99.90
25718;DHT22;13574;52.040;5.692;2023-02-05T16:42:49;9.90;99.90
25718;DHT22;13574;52.040;5.692;2023-02-05T16:45:23;10.00;99.90
25718;DHT22;13574;52.040;5.692;2023-02-05T16:51:10;10.00;99.90
25718;DHT22;13574;52.040;5.692;2023-02-05T16:53:57;9.80;99.90
25718;DHT22;13574;52.040;5.692;2023-02-05T16:56:29;9.60;99.90
25718;DHT22;13574;52.040;5.692;2023-02-05T16:59:02;10.00;99.90
25718;DHT22;13574;52.040;5.692;2023-02-05T17:01:37;10.10;99.90
25718;DHT22;13574;52.040;5.692;2023-02-05T17:04:04;10.10;99.90
25718;DHT22;13574;52.040;5.692;2023-02-05T17:06:37;10.00;99.90
25718;DHT22;13574;52.040;5.692;2023-02-05T17:09:05;10.10;99.90
25718;DHT22;13574;52.040;5.692;2023-02-05T17:11:41;10.20;99.90
25718;DHT22;13574;52.040;5.692;2023-02-05T17:16:40;10.40;99.90
25718;DHT22;13574;52.040;5.692;2023-02-05T17:19:27;10.50;99.90
25718;DHT22;13574;52.040;5.692;2023-02-05T17:24:47;10.10;99.90
25718;DHT22;13574;52.040;5.692;2023-02-05T17:30:18;9.80;99.90
25718;DHT22;13574;52.040;5.692;2023-02-05T17:32:45;9.60;99.90
25718;DHT22;13574;52.040;5.692;2023-02-05T17:35:15;9.60;99.90
25718;DHT22;13574;52.040;5.692;2023-02-05T17:37:41;9.60;99.90
25718;DHT22;13574;52.040;5.692;2023-02-05T17:40:08;9.80;99.90
25718;DHT22;13574;52.040;5.692;2023-02-05T17:42:40;9.90;99.90
25718;DHT22;13574;52.040;5.692;2023-02-05T17:45:26;9.80;99.90
25718;DHT22;13574;52.040;5.692;2023-02-05T17:47:52;9.80;99.90
25718;DHT22;13574;52.040;5.692;2023-02-05T17:50:18;9.30;99.90
25718;DHT22;13574;52.040;5.692;2023-02-05T17:52:44;9.40;99.90
25718;DHT22;13574;52.040;5.692;2023-02-05T17:55:16;9.40;99.90
25718;DHT22;13574;52.040;5.692;2023-02-05T17:57:42;9.40;99.90
25718;DHT22;13574;52.040;5.692;2023-02-05T18:02:38;9.50;99.90
25718;DHT22;13574;52.040;5.692;2023-02-05T18:05:04;9.50;99.90
25718;DHT22;13574;52.040;5.692;2023-02-05T18:07:52;9.60;99.90
25718;DHT22;13574;52.040;5.692;2023-02-05T18:10:21;9.60;99.90
25718;DHT22;13574;52.040;5.692;2023-02-05T18:12:48;9.30;99.90
25718;DHT22;13574;52.040;5.692;2023-02-05T18:15:14;9.20;99.90
25718;DHT22;13574;52.040;5.692;2023-02-05T18:17:40;9.30;99.90
25718;DHT22;13574;52.040;5.692;2023-02-05T18:20:06;9.30;99.90
25718;DHT22;13574;52.040;5.692;2023-02-05T18:22:33;9.30;99.90
25718;DHT22;13574;52.040;5.692;2023-02-05T18:24:58;9.40;99.90
25718;DHT22;13574;52.040;5.692;2023-02-05T18:27:24;9.20;99.90
25718;DHT22;13574;52.040;5.692;2023-02-05T18:29:51;9.00;99.90
25718;DHT22;13574;52.040;5.692;2023-02-05T18:32:16;8.80;99.90
25718;DHT22;13574;52.040;5.692;2023-02-05T18:34:42;9.00;99.90
25718;DHT22;13574;52.040;5.692;2023-02-05T18:37:08;9.10;99.90
25718;DHT22;13574;52.040;5.692;2023-02-05T18:39:34;8.70;99.90